sensor_id;sensor_type;location;lat;lon;timestamp;pressure;altitude;pressure_sealevel;temperature;humidity
51299;BME280;37382;45.192;9.790;2022-09-24T04:21:23;101196.44;;;17.42;100.00
51299;BME280;37382;45.192;9.790;2022-09-24T04:23:52;101194.16;;;17.20;100.00
51299;BME280;37382;45.192;9.790;2022-09-24T04:26:19;101195.75;;;17.28;100.00
51299;BME280;37382;45.192;9.790;2022-09-24T04:28:47;101200.22;;;17.11;100.00
51299;BME280;37382;45.192;9.790;2022-09-24T04:31:16;101197.78;;;17.02;100.00
51299;BME280;37382;45.192;9.790;2022-09-24T04:33:45;101190.81;;;17.00;100.00
51299;BME280;37382;45.192;9.790;2022-09-24T04:36:12;101186.31;;;17.05;100.00
51299;BME280;37382;45.192;9.790;2022-09-24T04:38:39;101190.56;;;16.83;100.00
51299;BME280;37382;45.192;9.790;2022-09-24T04:41:07;101195.78;;;16.91;100.00
51299;BME280;37382;45.192;9.790;2022-09-24T04:43:35;101183.84;;;16.79;100.00
51299;BME280;37382;45.192;9.790;2022-09-24T04:46:04;101179.47;;;16.96;100.00
51299;BME280;37382;45.192;9.790;2022-09-24T04:48:32;101185.78;;;16.97;100.00
51299;BME280;37382;45.192;9.790;2022-09-24T04:51:00;101181.25;;;17.21;100.00
51299;BME280;37382;45.192;9.790;2022-09-24T04:53:29;101179.91;;;17.12;100.00
51299;BME280;37382;45.192;9.790;2022-09-24T04:55:57;101180.06;;;16.98;100.00
51299;BME280;37382;45.192;9.790;2022-09-24T04:58:26;101170.13;;;16.97;100.00
51299;BME280;37382;45.192;9.790;2022-09-24T05:00:54;101176.50;;;16.72;100.00
51299;BME280;37382;45.192;9.790;2022-09-24T05:03:21;101162.97;;;16.96;100.00
51299;BME280;37382;45.192;9.790;2022-09-24T05:05:49;101167.25;;;16.67;100.00
51299;BME280;37382;45.192;9.790;2022-09-24T05:08:16;101164.53;;;16.85;100.00
51299;BME280;37382;45.192;9.790;2022-09-24T05:10:44;101172.94;;;16.72;100.00
51299;BME280;37382;45.192;9.790;2022-09-24T05:13:12;101167.69;;;16.89;100.00
51299;BME280;37382;45.192;9.790;2022-09-24T05:15:39;101169.13;;;17.10;100.00
51299;BME280;37382;45.192;9.790;2022-09-24T05:18:09;101175.56;;;17.04;100.00
51299;BME280;37382;45.192;9.790;2022-09-24T05:20:36;101191.16;;;16.85;100.00
51299;BME280;37382;45.192;9.790;2022-09-24T05:23:04;101187.38;;;17.04;100.00
51299;BME280;37382;45.192;9.790;2022-09-24T05:25:32;101190.81;;;17.00;100.00
51299;BME280;37382;45.192;9.790;2022-09-24T05:27:59;101189.22;;;17.11;100.00
51299;BME280;37382;45.192;9.790;2022-09-24T05:30:28;101181.88;;;17.04;100.00
51299;BME280;37382;45.192;9.790;2022-09-24T05:32:55;101186.44;;;16.74;100.00
51299;BME280;37382;45.192;9.790;2022-09-24T05:35:23;101189.06;;;16.87;100.00
51299;BME280;37382;45.192;9.790;2022-09-24T05:37:50;101183.56;;;16.87;100.00
51299;BME280;37382;45.192;9.790;2022-09-24T05:40:20;101184.09;;;17.14;100.00
51299;BME280;37382;45.192;9.790;2022-09-24T05:43:07;101184.78;;;17.10;100.00
51299;BME280;37382;45.192;9.790;2022-09-24T05:45:34;101200.06;;;17.05;100.00
51299;BME280;37382;45.192;9.790;2022-09-24T05:48:01;101190.81;;;17.00;100.00
51299;BME280;37382;45.192;9.790;2022-09-24T05:50:30;101193.19;;;16.96;100.00
51299;BME280;37382;45.192;9.790;2022-09-24T05:53:00;101192.72;;;17.18;100.00
51299;BME280;37382;45.192;9.790;2022-09-24T05:55:27;101192.88;;;17.23;100.00
51299;BME280;37382;45.192;9.790;2022-09-24T05:58:06;101200.06;;;17.05;100.00
51299;BME280;37382;45.192;9.790;2022-09-24T06:00:34;101198.00;;;17.01;100.00
51299;BME280;37382;45.192;9.790;2022-09-24T06:03:09;101204.25;;;16.89;100.00
51299;BME280;37382;45.192;9.790;2022-09-24T06:05:43;101212.13;;;17.04;100.00
51299;BME280;37382;45.192;9.790;2022-09-24T06:08:14;101216.16;;;17.02;100.00
51299;BME280;37382;45.192;9.790;2022-09-24T06:10:43;101204.56;;;17.18;100.00
51299;BME280;37382;45.192;9.790;2022-09-24T06:13:15;101210.38;;;17.10;100.00
51299;BME280;37382;45.192;9.790;2022-09-24T06:15:44;101213.19;;;17.03;100.00
51299;BME280;37382;45.192;9.790;2022-09-24T06:18:11;101219.19;;;17.31;100.00
51299;BME280;37382;45.192;9.790;2022-09-24T06:20:39;101225.41;;;17.07;100.00
51299;BME280;37382;45.192;9.790;2022-09-24T06:23:07;101229.84;;;17.09;100.00
51299;BME280;37382;45.192;9.790;2022-09-24T06:25:34;101224.84;;;17.17;100.00
51299;BME280;37382;45.192;9.790;2022-09-24T06:28:03;101228.53;;;17.11;100.00
51299;BME280;37382;45.192;9.790;2022-09-24T06:30:37;101227.91;;;17.28;100.00
51299;BME280;37382;45.192;9.790;2022-09-24T06:33:08;101220.22;;;17.18;100.00
51299;BME280;37382;45.192;9.790;2022-09-24T06:35:37;101233.88;;;17.06;100.00
51299;BME280;37382;45.192;9.790;2022-09-24T06:38:05;101232.34;;;17.29;100.00
51299;BME280;37382;45.192;9.790;2022-09-24T06:40:33;101228.31;;;17.31;100.00
51299;BME280;37382;45.192;9.790;2022-09-24T06:43:05;101235.41;;;17.20;100.00
51299;BME280;37382;45.192;9.790;2022-09-24T06:45:33;101237.84;;;17.29;100.00
51299;BME280;37382;45.192;9.790;2022-09-24T06:48:02;101244.03;;;17.24;100.00
51299;BME280;37382;45.192;9.790;2022-09-24T06:50:32;101244.03;;;17.42;100.00
51299;BME280;37382;45.192;9.790;2022-09-24T06:53:04;101247.59;;;17.43;100.00
51299;BME280;37382;45.192;9.790;2022-09-24T06:55:33;101243.88;;;17.19;100.00
51299;BME280;37382;45.192;9.790;2022-09-24T06:58:09;101234.25;;;17.47;100.00
51299;BME280;37382;45.192;9.790;2022-09-24T07:00:37;101243.88;;;17.37;100.00
51299;BME280;37382;45.192;9.790;2022-09-24T07:03:06;101244.34;;;17.34;100.00
51299;BME280;37382;45.192;9.790;2022-09-24T07:05:34;101241.41;;;17.48;100.00
51299;BME280;37382;45.192;9.790;2022-09-24T07:08:08;101251.25;;;17.55;100.00
51299;BME280;37382;45.192;9.790;2022-09-24T07:10:36;101249.38;;;17.37;100.00
51299;BME280;37382;45.192;9.790;2022-09-24T07:13:05;101244.63;;;17.45;100.00
51299;BME280;37382;45.192;9.790;2022-09-24T07:15:32;101250.13;;;17.26;100.00
51299;BME280;37382;45.192;9.790;2022-09-24T07:18:01;101247.19;;;17.58;100.00
51299;BME280;37382;45.192;9.790;2022-09-24T07:20:28;101243.22;;;17.72;100.00
51299;BME280;37382;45.192;9.790;2022-09-24T07:22:55;101247.75;;;17.48;100.00
51299;BME280;37382;45.192;9.790;2022-09-24T07:25:23;101254.38;;;17.59;100.00
51299;BME280;37382;45.192;9.790;2022-09-24T07:27:50;101251.78;;;17.64;100.00
51299;BME280;37382;45.192;9.790;2022-09-24T07:30:18;101248.66;;;17.60;100.00
51299;BME280;37382;45.192;9.790;2022-09-24T07:32:45;101254.75;;;17.63;100.00
51299;BME280;37382;45.192;9.790;2022-09-24T07:35:12;101254.28;;;17.66;100.00
51299;BME280;37382;45.192;9.790;2022-09-24T07:37:40;101248.50;;;17.55;100.00
51299;BME280;37382;45.192;9.790;2022-09-24T07:40:08;101252.75;;;17.70;100.00
51299;BME280;37382;45.192;9.790;2022-09-24T07:42:36;101258.94;;;17.35;100.00
51299;BME280;37382;45.192;9.790;2022-09-24T07:45:05;101245.84;;;17.79;100.00
51299;BME280;37382;45.192;9.790;2022-09-24T07:47:34;101247.16;;;17.76;100.00
51299;BME280;37382;45.192;9.790;2022-09-24T07:50:02;101246.84;;;17.85;100.00
51299;BME280;37382;45.192;9.790;2022-09-24T07:52:30;101244.69;;;17.87;100.00
51299;BME280;37382;45.192;9.790;2022-09-24T07:54:58;101254.75;;;17.63;100.00
51299;BME280;37382;45.192;9.790;2022-09-24T07:57:26;101256.22;;;17.65;100.00
51299;BME280;37382;45.192;9.790;2022-09-24T07:59:53;101274.63;;;17.46;100.00
51299;BME280;37382;45.192;9.790;2022-09-24T08:02:21;101266.53;;;17.70;100.00
51299;BME280;37382;45.192;9.790;2022-09-24T08:04:48;101267.09;;;17.90;100.00
51299;BME280;37382;45.192;9.790;2022-09-24T08:07:16;101267.34;;;17.89;100.00
51299;BME280;37382;45.192;9.790;2022-09-24T08:09:44;101279.31;;;17.94;100.00
51299;BME280;37382;45.192;9.790;2022-09-24T08:12:11;101272.53;;;17.97;100.00
51299;BME280;37382;45.192;9.790;2022-09-24T08:14:39;101277.56;;;18.00;100.00
51299;BME280;37382;45.192;9.790;2022-09-24T08:17:07;101273.63;;;18.08;100.00
51299;BME280;37382;45.192;9.790;2022-09-24T08:19:35;101281.53;;;18.16;100.00
51299;BME280;37382;45.192;9.790;2022-09-24T08:22:03;101278.47;;;18.24;100.00
51299;BME280;37382;45.192;9.790;2022-09-24T08:24:31;101274.53;;;17.90;100.00
51299;BME280;37382;45.192;9.790;2022-09-24T08:26:59;101269.91;;;18.02;100.00
51299;BME280;37382;45.192;9.790;2022-09-24T08:29:26;101271.53;;;17.91;100.00
51299;BME280;37382;45.192;9.790;2022-09-24T08:31:53;101278.41;;;17.82;100.00
51299;BME280;37382;45.192;9.790;2022-09-24T08:34:21;101274.06;;;17.93;100.00
51299;BME280;37382;45.192;9.790;2022-09-24T08:36:48;101268.38;;;18.06;100.00
51299;BME280;37382;45.192;9.790;2022-09-24T08:39:16;101272.69;;;18.14;100.00
51299;BME280;37382;45.192;9.790;2022-09-24T08:41:55;101276.91;;;18.17;100.00
51299;BME280;37382;45.192;9.790;2022-09-24T08:44:37;101263.63;;;18.37;100.00
51299;BME280;37382;45.192;9.790;2022-09-24T08:47:35;101253.91;;;18.23;100.00
51299;BME280;37382;45.192;9.790;2022-09-24T08:50:25;101256.44;;;18.36;100.00
51299;BME280;37382;45.192;9.790;2022-09-24T08:53:18;101273.66;;;18.20;100.00
51299;BME280;37382;45.192;9.790;2022-09-24T08:55:48;101270.72;;;18.03;100.00
51299;BME280;37382;45.192;9.790;2022-09-24T08:58:27;101274.25;;;18.22;100.00
51299;BME280;37382;45.192;9.790;2022-09-24T09:06:12;101270.59;;;18.63;100.00
51299;BME280;37382;45.192;9.790;2022-09-24T09:11:38;101267.47;;;18.48;100.00
51299;BME280;37382;45.192;9.790;2022-09-24T09:14:19;101279.06;;;18.26;100.00
51299;BME280;37382;45.192;9.790;2022-09-24T09:17:11;101273.97;;;18.54;100.00
51299;BME280;37382;45.192;9.790;2022-09-24T09:19:47;101270.13;;;18.43;100.00
51299;BME280;37382;45.192;9.790;2022-09-24T09:22:23;101276.22;;;18.45;100.00
51299;BME280;37382;45.192;9.790;2022-09-24T09:24:53;101271.91;;;18.37;100.00
51299;BME280;37382;45.192;9.790;2022-09-24T09:27:30;101282.97;;;18.84;100.00
51299;BME280;37382;45.192;9.790;2022-09-24T09:30:02;101277.38;;;18.91;100.00
51299;BME280;37382;45.192;9.790;2022-09-24T09:32:49;101281.63;;;18.63;100.00
51299;BME280;37382;45.192;9.790;2022-09-24T09:35:28;101281.72;;;18.45;100.00
51299;BME280;37382;45.192;9.790;2022-09-24T09:43:00;101296.69;;;18.37;100.00
51299;BME280;37382;45.192;9.790;2022-09-24T09:45:30;101299.88;;;18.22;100.00
51299;BME280;37382;45.192;9.790;2022-09-24T09:48:00;101303.75;;;18.33;100.00
51299;BME280;37382;45.192;9.790;2022-09-24T09:50:36;101308.81;;;18.60;100.00
51299;BME280;37382;45.192;9.790;2022-09-24T09:53:04;101310.94;;;18.34;100.00
51299;BME280;37382;45.192;9.790;2022-09-24T09:55:34;101311.81;;;18.58;100.00
51299;BME280;37382;45.192;9.790;2022-09-24T10:00:42;101316.56;;;17.97;100.00
51299;BME280;37382;45.192;9.790;2022-09-24T10:03:30;101313.59;;;17.61;100.00
51299;BME280;37382;45.192;9.790;2022-09-24T10:06:04;101309.72;;;18.00;100.00
51299;BME280;37382;45.192;9.790;2022-09-24T10:08:32;101323.75;;;17.79;100.00
51299;BME280;37382;45.192;9.790;2022-09-24T10:11:00;101317.03;;;17.75;100.00
51299;BME280;37382;45.192;9.790;2022-09-24T10:13:29;101323.69;;;17.49;100.00
51299;BME280;37382;45.192;9.790;2022-09-24T10:16:02;101319.47;;;17.28;100.00
51299;BME280;37382;45.192;9.790;2022-09-24T10:18:37;101313.56;;;17.31;100.00
51299;BME280;37382;45.192;9.790;2022-09-24T10:21:12;101309.94;;;17.31;100.00
51299;BME280;37382;45.192;9.790;2022-09-24T10:23:43;101307.44;;;17.29;100.00
51299;BME280;37382;45.192;9.790;2022-09-24T10:26:15;101308.56;;;17.58;100.00
51299;BME280;37382;45.192;9.790;2022-09-24T10:28:48;101313.69;;;17.36;100.00
51299;BME280;37382;45.192;9.790;2022-09-24T10:31:39;101306.34;;;17.49;100.00
51299;BME280;37382;45.192;9.790;2022-09-24T10:34:21;101304.63;;;17.85;100.00
51299;BME280;37382;45.192;9.790;2022-09-24T10:36:52;101298.66;;;17.88;100.00
51299;BME280;37382;45.192;9.790;2022-09-24T10:39:20;101289.66;;;18.53;100.00
51299;BME280;37382;45.192;9.790;2022-09-24T10:41:53;101288.84;;;18.10;100.00
51299;BME280;37382;45.192;9.790;2022-09-24T10:44:23;101289.28;;;17.77;100.00
51299;BME280;37382;45.192;9.790;2022-09-24T11:03:34;101281.53;;;18.70;100.00
51299;BME280;37382;45.192;9.790;2022-09-24T11:12:07;101276.13;;;19.23;100.00
51299;BME280;37382;45.192;9.790;2022-09-24T11:17:50;101267.53;;;19.60;100.00
51299;BME280;37382;45.192;9.790;2022-09-24T11:20:35;101265.44;;;19.67;100.00
51299;BME280;37382;45.192;9.790;2022-09-24T11:32:15;101253.63;;;19.02;100.00
51299;BME280;37382;45.192;9.790;2022-09-24T11:40:57;101243.47;;;19.72;100.00
51299;BME280;37382;45.192;9.790;2022-09-24T11:52:00;101230.00;;;20.21;100.00
51299;BME280;37382;45.192;9.790;2022-09-24T11:54:44;101225.00;;;20.35;100.00
51299;BME280;37382;45.192;9.790;2022-09-24T11:57:23;101213.59;;;19.98;100.00
51299;BME280;37382;45.192;9.790;2022-09-24T11:59:59;101207.25;;;20.14;100.00
51299;BME280;37382;45.192;9.790;2022-09-24T12:02:49;101196.88;;;20.04;100.00
51299;BME280;37382;45.192;9.790;2022-09-24T12:05:44;101186.13;;;19.91;100.00
51299;BME280;37382;45.192;9.790;2022-09-24T12:08:24;101175.00;;;19.86;100.00
51299;BME280;37382;45.192;9.790;2022-09-24T12:11:05;101178.97;;;19.61;100.00
51299;BME280;37382;45.192;9.790;2022-09-24T12:13:47;101170.75;;;19.78;100.00
51299;BME280;37382;45.192;9.790;2022-09-24T12:16:25;101176.75;;;19.46;100.00
51299;BME280;37382;45.192;9.790;2022-09-24T12:19:27;101171.25;;;19.63;100.00
51299;BME280;37382;45.192;9.790;2022-09-24T12:22:01;101173.34;;;19.56;100.00
51299;BME280;37382;45.192;9.790;2022-09-24T12:24:37;101173.44;;;19.61;100.00
51299;BME280;37382;45.192;9.790;2022-09-24T12:27:13;101188.38;;;19.48;100.00
51299;BME280;37382;45.192;9.790;2022-09-24T12:32:30;101181.53;;;19.51;100.00
51299;BME280;37382;45.192;9.790;2022-09-24T12:35:42;101176.25;;;19.49;100.00
51299;BME280;37382;45.192;9.790;2022-09-24T12:38:17;101177.13;;;19.38;100.00
51299;BME280;37382;45.192;9.790;2022-09-24T12:43:46;101180.50;;;19.40;100.00
51299;BME280;37382;45.192;9.790;2022-09-24T12:46:20;101182.06;;;19.36;100.00
51299;BME280;37382;45.192;9.790;2022-09-24T12:48:50;101174.03;;;19.34;100.00
51299;BME280;37382;45.192;9.790;2022-09-24T12:51:19;101176.84;;;19.51;100.00
51299;BME280;37382;45.192;9.790;2022-09-24T12:53:57;101174.78;;;19.76;100.00
51299;BME280;37382;45.192;9.790;2022-09-24T12:56:27;101178.47;;;19.35;100.00
51299;BME280;37382;45.192;9.790;2022-09-24T12:58:56;101181.03;;;19.25;100.00
51299;BME280;37382;45.192;9.790;2022-09-24T13:01:27;101177.66;;;19.52;100.00
51299;BME280;37382;45.192;9.790;2022-09-24T13:06:51;101169.50;;;19.57;100.00
51299;BME280;37382;45.192;9.790;2022-09-24T13:09:35;101164.84;;;19.74;100.00
51299;BME280;37382;45.192;9.790;2022-09-24T13:14:50;101161.28;;;19.91;100.00
51299;BME280;37382;45.192;9.790;2022-09-24T13:17:18;101174.16;;;19.56;100.00
51299;BME280;37382;45.192;9.790;2022-09-24T13:19:46;101179.75;;;19.45;100.00
51299;BME280;37382;45.192;9.790;2022-09-24T13:22:28;101181.13;;;19.30;100.00
51299;BME280;37382;45.192;9.790;2022-09-24T13:25:17;101175.31;;;19.44;100.00
51299;BME280;37382;45.192;9.790;2022-09-24T13:30:45;101167.28;;;19.42;100.00
51299;BME280;37382;45.192;9.790;2022-09-24T13:38:37;101167.53;;;19.41;100.00
51299;BME280;37382;45.192;9.790;2022-09-24T13:41:34;101164.28;;;19.44;100.00
51299;BME280;37382;45.192;9.790;2022-09-24T13:44:14;101161.97;;;19.52;100.00
51299;BME280;37382;45.192;9.790;2022-09-24T13:46:45;101155.59;;;19.81;100.00
51299;BME280;37382;45.192;9.790;2022-09-24T13:49:17;101152.56;;;19.53;100.00
51299;BME280;37382;45.192;9.790;2022-09-24T13:51:55;101149.13;;;19.75;100.00
51299;BME280;37382;45.192;9.790;2022-09-24T13:54:36;101154.50;;;19.82;100.00
51299;BME280;37382;45.192;9.790;2022-09-24T13:57:10;101141.63;;;19.87;100.00
51299;BME280;37382;45.192;9.790;2022-09-24T13:59:38;101139.44;;;19.89;100.00
51299;BME280;37382;45.192;9.790;2022-09-24T14:02:24;101154.25;;;19.54;100.00
51299;BME280;37382;45.192;9.790;2022-09-24T14:04:56;101153.34;;;19.20;100.00
51299;BME280;37382;45.192;9.790;2022-09-24T14:07:26;101148.22;;;19.41;100.00
51299;BME280;37382;45.192;9.790;2022-09-24T14:10:10;101144.16;;;19.60;100.00
51299;BME280;37382;45.192;9.790;2022-09-24T14:12:39;101127.25;;;19.56;100.00
51299;BME280;37382;45.192;9.790;2022-09-24T14:15:15;101139.78;;;19.93;100.00
51299;BME280;37382;45.192;9.790;2022-09-24T14:17:55;101134.09;;;20.17;100.00
51299;BME280;37382;45.192;9.790;2022-09-24T14:20:26;101128.31;;;20.18;100.00
51299;BME280;37382;45.192;9.790;2022-09-24T14:22:55;101127.28;;;20.81;100.00
51299;BME280;37382;45.192;9.790;2022-09-24T14:25:27;101123.09;;;20.78;100.00
51299;BME280;37382;45.192;9.790;2022-09-24T14:27:57;101126.66;;;20.56;100.00
51299;BME280;37382;45.192;9.790;2022-09-24T14:30:28;101120.03;;;20.57;100.00
51299;BME280;37382;45.192;9.790;2022-09-24T14:33:00;101124.00;;;20.44;100.00
51299;BME280;37382;45.192;9.790;2022-09-24T14:35:31;101121.06;;;19.78;100.00
51299;BME280;37382;45.192;9.790;2022-09-24T14:38:06;101122.38;;;19.93;100.00
51299;BME280;37382;45.192;9.790;2022-09-24T14:40:44;101107.63;;;19.70;100.00
51299;BME280;37382;45.192;9.790;2022-09-24T14:45:43;101093.91;;;19.58;100.00
51299;BME280;37382;45.192;9.790;2022-09-24T14:48:32;101101.59;;;19.56;100.00
51299;BME280;37382;45.192;9.790;2022-09-24T14:51:00;101090.06;;;19.76;100.00
51299;BME280;37382;45.192;9.790;2022-09-24T14:53:31;101094.22;;;19.45;100.00
51299;BME280;37382;45.192;9.790;2022-09-24T14:56:18;101093.91;;;19.58;100.00
51299;BME280;37382;45.192;9.790;2022-09-24T14:58:46;101095.81;;;19.12;100.00
51299;BME280;37382;45.192;9.790;2022-09-24T15:01:16;101095.72;;;19.07;100.00
51299;BME280;37382;45.192;9.790;2022-09-24T15:03:53;101089.47;;;19.11;100.00
51299;BME280;37382;45.192;9.790;2022-09-24T15:06:28;101088.78;;;19.04;100.00
51299;BME280;37382;45.192;9.790;2022-09-24T15:09:00;101104.28;;;18.93;100.00
51299;BME280;37382;45.192;9.790;2022-09-24T15:11:30;101103.13;;;18.65;100.00
51299;BME280;37382;45.192;9.790;2022-09-24T15:14:12;101091.09;;;18.83;100.00
51299;BME280;37382;45.192;9.790;2022-09-24T15:16:42;101103.06;;;18.77;100.00
51299;BME280;37382;45.192;9.790;2022-09-24T15:19:18;101107.63;;;18.95;100.00
51299;BME280;37382;45.192;9.790;2022-09-24T15:21:51;101115.69;;;18.85;100.00
51299;BME280;37382;45.192;9.790;2022-09-24T15:24:19;101118.81;;;18.65;100.00
51299;BME280;37382;45.192;9.790;2022-09-24T15:27:32;101114.25;;;18.59;100.00
51299;BME280;37382;45.192;9.790;2022-09-24T15:29:53;101115.84;;;18.55;100.00
51299;BME280;37382;45.192;9.790;2022-09-24T15:32:30;101113.69;;;18.57;100.00
51299;BME280;37382;45.192;9.790;2022-09-24T15:34:58;101110.44;;;18.60;100.00
51299;BME280;37382;45.192;9.790;2022-09-24T15:37:27;101107.66;;;18.83;100.00
51299;BME280;37382;45.192;9.790;2022-09-24T15:39:58;101104.75;;;18.78;100.00
51299;BME280;37382;45.192;9.790;2022-09-24T15:42:31;101106.22;;;18.69;100.00
51299;BME280;37382;45.192;9.790;2022-09-24T15:44:58;101103.84;;;18.61;100.00
51299;BME280;37382;45.192;9.790;2022-09-24T15:47:26;101090.88;;;18.73;100.00
51299;BME280;37382;45.192;9.790;2022-09-24T15:49:54;101093.66;;;18.85;100.00
51299;BME280;37382;45.192;9.790;2022-09-24T15:52:25;101093.25;;;18.81;100.00
51299;BME280;37382;45.192;9.790;2022-09-24T15:54:59;101094.94;;;18.82;100.00
51299;BME280;37382;45.192;9.790;2022-09-24T15:57:27;101104.09;;;18.59;100.00
51299;BME280;37382;45.192;9.790;2022-09-24T15:59:55;101100.00;;;18.62;100.00
51299;BME280;37382;45.192;9.790;2022-09-24T16:02:26;101103.63;;;18.62;100.00
51299;BME280;37382;45.192;9.790;2022-09-24T16:04:55;101105.41;;;18.45;100.00
51299;BME280;37382;45.192;9.790;2022-09-24T16:07:30;101113.72;;;18.21;100.00
51299;BME280;37382;45.192;9.790;2022-09-24T16:09:58;101106.53;;;18.32;100.00
51299;BME280;37382;45.192;9.790;2022-09-24T16:12:26;101113.81;;;17.91;100.00
51299;BME280;37382;45.192;9.790;2022-09-24T16:14:54;101103.41;;;17.93;100.00
51299;BME280;37382;45.192;9.790;2022-09-24T16:17:28;101107.00;;;18.05;100.00
51299;BME280;37382;45.192;9.790;2022-09-24T16:19:57;101102.81;;;17.91;100.00
51299;BME280;37382;45.192;9.790;2022-09-24T16:22:24;101113.34;;;17.94;100.00
51299;BME280;37382;45.192;9.790;2022-09-24T16:24:51;101111.44;;;18.18;100.00
51299;BME280;37382;45.192;9.790;2022-09-24T16:27:20;101111.56;;;17.57;100.00
51299;BME280;37382;45.192;9.790;2022-09-24T16:29:47;101107.13;;;17.56;100.00
51299;BME280;37382;45.192;9.790;2022-09-24T16:32:15;101107.44;;;17.36;100.00
51299;BME280;37382;45.192;9.790;2022-09-24T16:34:42;101110.28;;;17.30;100.00
51299;BME280;37382;45.192;9.790;2022-09-24T16:37:10;101108.38;;;17.30;100.00
51299;BME280;37382;45.192;9.790;2022-09-24T16:39:39;101116.28;;;17.38;100.00
51299;BME280;37382;45.192;9.790;2022-09-24T16:42:06;101109.97;;;17.38;100.00
51299;BME280;37382;45.192;9.790;2022-09-24T16:44:34;101110.06;;;17.31;100.00
51299;BME280;37382;45.192;9.790;2022-09-24T16:47:02;101112.19;;;17.29;100.00
51299;BME280;37382;45.192;9.790;2022-09-24T16:49:30;101111.03;;;17.06;100.00
51299;BME280;37382;45.192;9.790;2022-09-24T16:51:57;101107.44;;;17.06;100.00
51299;BME280;37382;45.192;9.790;2022-09-24T16:54:26;101101.81;;;17.01;100.00
51299;BME280;37382;45.192;9.790;2022-09-24T16:56:55;101105.75;;;17.05;100.00
51299;BME280;37382;45.192;9.790;2022-09-24T16:59:23;101101.13;;;17.17;100.00
51299;BME280;37382;45.192;9.790;2022-09-24T17:01:51;101104.00;;;17.11;100.00
51299;BME280;37382;45.192;9.790;2022-09-24T17:04:20;101111.72;;;17.02;100.00
51299;BME280;37382;45.192;9.790;2022-09-24T17:06:48;101108.97;;;17.02;100.00
51299;BME280;37382;45.192;9.790;2022-09-24T17:09:16;101108.59;;;16.98;100.00
51299;BME280;37382;45.192;9.790;2022-09-24T17:12:02;101111.72;;;17.02;100.00
51299;BME280;37382;45.192;9.790;2022-09-24T17:14:30;101113.31;;;17.10;100.00
51299;BME280;37382;45.192;9.790;2022-09-24T17:16:57;101101.59;;;17.33;100.00
51299;BME280;37382;45.192;9.790;2022-09-24T17:19:25;101097.66;;;17.40;100.00
51299;BME280;37382;45.192;9.790;2022-09-24T17:21:53;101099.16;;;17.24;100.00
51299;BME280;37382;45.192;9.790;2022-09-24T17:24:21;101102.69;;;17.13;100.00
51299;BME280;37382;45.192;9.790;2022-09-24T17:26:48;101106.56;;;16.94;100.00
51299;BME280;37382;45.192;9.790;2022-09-24T17:29:16;101113.00;;;16.81;100.00
51299;BME280;37382;45.192;9.790;2022-09-24T17:31:47;101110.81;;;16.71;100.00
51299;BME280;37382;45.192;9.790;2022-09-24T17:34:15;101107.53;;;16.62;100.00
51299;BME280;37382;45.192;9.790;2022-09-24T17:36:43;101113.16;;;16.49;100.00
51299;BME280;37382;45.192;9.790;2022-09-24T17:39:11;101109.97;;;16.70;100.00
51299;BME280;37382;45.192;9.790;2022-09-24T17:41:39;101107.03;;;16.84;100.00
51299;BME280;37382;45.192;9.790;2022-09-24T17:44:09;101108.97;;;17.02;100.00
51299;BME280;37382;45.192;9.790;2022-09-24T17:46:38;101102.78;;;17.06;100.00
51299;BME280;37382;45.192;9.790;2022-09-24T17:49:05;101098.44;;;16.80;100.00
51299;BME280;37382;45.192;9.790;2022-09-24T17:51:34;101101.28;;;16.74;100.00
51299;BME280;37382;45.192;9.790;2022-09-24T17:54:09;101106.81;;;16.85;100.00
51299;BME280;37382;45.192;9.790;2022-09-24T17:56:38;101109.13;;;16.70;100.00
51299;BME280;37382;45.192;9.790;2022-09-24T17:59:10;101109.56;;;16.85;100.00
51299;BME280;37382;45.192;9.790;2022-09-24T18:01:40;101120.06;;;16.58;100.00
51299;BME280;37382;45.192;9.790;2022-09-24T18:04:13;101113.69;;;16.58;100.00
51299;BME280;37382;45.192;9.790;2022-09-24T18:06:43;101125.06;;;16.43;100.00
51299;BME280;37382;45.192;9.790;2022-09-24T18:09:11;101116.81;;;16.43;100.00
51299;BME280;37382;45.192;9.790;2022-09-24T18:11:42;101112.78;;;16.82;100.00
51299;BME280;37382;45.192;9.790;2022-09-24T18:14:13;101112.41;;;16.79;100.00
51299;BME280;37382;45.192;9.790;2022-09-24T18:16:41;101113.88;;;16.63;100.00
51299;BME280;37382;45.192;9.790;2022-09-24T18:19:11;101111.81;;;16.77;100.00
51299;BME280;37382;45.192;9.790;2022-09-24T18:21:39;101108.22;;;16.58;100.00
51299;BME280;37382;45.192;9.790;2022-09-24T18:24:08;101110.34;;;16.56;100.00
51299;BME280;37382;45.192;9.790;2022-09-24T18:26:37;101116.34;;;16.46;100.00
51299;BME280;37382;45.192;9.790;2022-09-24T18:29:11;101117.00;;;16.48;100.00
51299;BME280;37382;45.192;9.790;2022-09-24T18:31:40;101113.03;;;16.62;100.00
51299;BME280;37382;45.192;9.790;2022-09-24T18:34:10;101115.00;;;16.55;100.00
51299;BME280;37382;45.192;9.790;2022-09-24T18:36:43;101115.38;;;16.40;100.00
51299;BME280;37382;45.192;9.790;2022-09-24T18:39:12;101108.44;;;16.56;100.00
51299;BME280;37382;45.192;9.790;2022-09-24T18:41:51;101105.78;;;16.49;100.00
51299;BME280;37382;45.192;9.790;2022-09-24T18:44:18;101121.63;;;16.47;100.00
51299;BME280;37382;45.192;9.790;2022-09-24T18:46:46;101125.91;;;16.43;100.00
51299;BME280;37382;45.192;9.790;2022-09-24T18:49:13;101126.50;;;16.45;100.00
51299;BME280;37382;45.192;9.790;2022-09-24T18:51:40;101125.59;;;16.51;100.00